sensor_id;sensor_type;location;lat;lon;timestamp;pressure;altitude;pressure_sealevel;temperature;humidity
37832;BME280;23671;38.090;-122.570;2022-12-07T00:01:53;101765.06;;;13.27;69.67
37832;BME280;23671;38.090;-122.570;2022-12-07T00:04:20;101762.41;;;13.27;69.19
37832;BME280;23671;38.090;-122.570;2022-12-07T00:06:51;101761.56;;;13.27;69.38
37832;BME280;23671;38.090;-122.570;2022-12-07T00:09:19;101769.53;;;13.27;68.98
37832;BME280;23671;38.090;-122.570;2022-12-07T00:11:50;101780.59;;;13.21;70.00
37832;BME280;23671;38.090;-122.570;2022-12-07T00:14:17;101777.66;;;13.13;70.89
37832;BME280;23671;38.090;-122.570;2022-12-07T00:16:46;101775.34;;;13.08;70.86
37832;BME280;23671;38.090;-122.570;2022-12-07T00:19:15;101777.88;;;13.10;69.79
37832;BME280;23671;38.090;-122.570;2022-12-07T00:21:42;101776.31;;;13.07;70.73
37832;BME280;23671;38.090;-122.570;2022-12-07T00:24:10;101769.91;;;13.10;70.05
37832;BME280;23671;38.090;-122.570;2022-12-07T00:26:39;101762.56;;;13.13;70.49
37832;BME280;23671;38.090;-122.570;2022-12-07T00:29:16;101762.38;;;13.16;70.20
37832;BME280;23671;38.090;-122.570;2022-12-07T00:31:44;101769.16;;;13.20;69.97
37832;BME280;23671;38.090;-122.570;2022-12-07T00:34:18;101761.94;;;13.22;70.07
37832;BME280;23671;38.090;-122.570;2022-12-07T00:36:45;101766.13;;;13.25;69.55
37832;BME280;23671;38.090;-122.570;2022-12-07T00:39:13;101775.91;;;13.24;69.15
37832;BME280;23671;38.090;-122.570;2022-12-07T00:41:40;101771.56;;;13.23;69.19
37832;BME280;23671;38.090;-122.570;2022-12-07T00:44:07;101778.78;;;13.21;69.86
37832;BME280;23671;38.090;-122.570;2022-12-07T00:46:34;101781.56;;;13.20;69.88
37832;BME280;23671;38.090;-122.570;2022-12-07T00:49:01;101780.81;;;13.18;69.21
37832;BME280;23671;38.090;-122.570;2022-12-07T00:51:28;101787.91;;;13.17;69.87
37832;BME280;23671;38.090;-122.570;2022-12-07T00:53:55;101786.97;;;13.18;69.43
37832;BME280;23671;38.090;-122.570;2022-12-07T00:56:24;101789.75;;;13.17;69.38
37832;BME280;23671;38.090;-122.570;2022-12-07T00:58:54;101792.41;;;13.17;69.54
37832;BME280;23671;38.090;-122.570;2022-12-07T01:01:23;101797.59;;;13.18;69.41
37832;BME280;23671;38.090;-122.570;2022-12-07T01:03:50;101803.94;;;13.16;69.22
37832;BME280;23671;38.090;-122.570;2022-12-07T01:06:19;101804.06;;;13.14;69.31
37832;BME280;23671;38.090;-122.570;2022-12-07T01:08:46;101806.22;;;13.09;68.71
37832;BME280;23671;38.090;-122.570;2022-12-07T01:11:15;101802.09;;;13.05;68.11
37832;BME280;23671;38.090;-122.570;2022-12-07T01:13:44;101802.25;;;13.02;68.52
37832;BME280;23671;38.090;-122.570;2022-12-07T01:16:14;101803.31;;;13.00;68.82
37832;BME280;23671;38.090;-122.570;2022-12-07T01:18:42;101811.97;;;13.03;67.82
37832;BME280;23671;38.090;-122.570;2022-12-07T01:21:14;101812.88;;;13.02;67.90
37832;BME280;23671;38.090;-122.570;2022-12-07T01:23:42;101812.34;;;12.97;68.03
37832;BME280;23671;38.090;-122.570;2022-12-07T01:26:15;101818.72;;;12.95;68.33
37832;BME280;23671;38.090;-122.570;2022-12-07T01:28:43;101814.47;;;12.92;68.13
37832;BME280;23671;38.090;-122.570;2022-12-07T01:31:13;101816.84;;;12.84;68.17
37832;BME280;23671;38.090;-122.570;2022-12-07T01:33:45;101822.34;;;12.81;67.87
37832;BME280;23671;38.090;-122.570;2022-12-07T01:36:30;101815.56;;;12.77;68.12
37832;BME280;23671;38.090;-122.570;2022-12-07T01:39:01;101815.78;;;12.74;68.01
37832;BME280;23671;38.090;-122.570;2022-12-07T01:41:31;101814.19;;;12.71;67.81
37832;BME280;23671;38.090;-122.570;2022-12-07T01:44:21;101819.00;;;12.66;68.05
37832;BME280;23671;38.090;-122.570;2022-12-07T01:46:52;101809.44;;;12.64;67.51
37832;BME280;23671;38.090;-122.570;2022-12-07T01:49:40;101810.09;;;12.55;67.59
37832;BME280;23671;38.090;-122.570;2022-12-07T01:52:22;101810.09;;;12.55;67.98
37832;BME280;23671;38.090;-122.570;2022-12-07T01:54:56;101821.84;;;12.51;67.91
37832;BME280;23671;38.090;-122.570;2022-12-07T01:57:25;101818.88;;;12.43;68.28
37832;BME280;23671;38.090;-122.570;2022-12-07T01:59:53;101819.75;;;12.43;68.06
37832;BME280;23671;38.090;-122.570;2022-12-07T02:02:33;101822.47;;;12.42;68.13
37832;BME280;23671;38.090;-122.570;2022-12-07T02:05:02;101821.22;;;12.35;67.91
37832;BME280;23671;38.090;-122.570;2022-12-07T02:07:30;101819.53;;;12.34;67.17
37832;BME280;23671;38.090;-122.570;2022-12-07T02:10:11;101817.81;;;12.33;67.81
37832;BME280;23671;38.090;-122.570;2022-12-07T02:12:38;101821.63;;;12.29;67.60
37832;BME280;23671;38.090;-122.570;2022-12-07T02:15:06;101825.66;;;12.22;67.22
37832;BME280;23671;38.090;-122.570;2022-12-07T02:30:47;101844.69;;;12.02;68.02
37832;BME280;23671;38.090;-122.570;2022-12-07T02:33:25;101836.00;;;12.00;67.49
37832;BME280;23671;38.090;-122.570;2022-12-07T02:36:08;101841.50;;;11.97;67.68
37832;BME280;23671;38.090;-122.570;2022-12-07T02:38:57;101839.16;;;11.92;67.04
37832;BME280;23671;38.090;-122.570;2022-12-07T02:41:32;101843.06;;;11.86;67.93
37832;BME280;23671;38.090;-122.570;2022-12-07T02:44:07;101843.28;;;11.83;67.48
37832;BME280;23671;38.090;-122.570;2022-12-07T02:46:40;101846.34;;;11.77;67.36
37832;BME280;23671;38.090;-122.570;2022-12-07T02:49:09;101848.41;;;11.72;67.81
37832;BME280;23671;38.090;-122.570;2022-12-07T02:51:56;101844.09;;;11.71;67.51
37832;BME280;23671;38.090;-122.570;2022-12-07T02:54:23;101847.59;;;11.72;67.46
37832;BME280;23671;38.090;-122.570;2022-12-07T02:56:56;101851.50;;;11.66;67.40
37832;BME280;23671;38.090;-122.570;2022-12-07T03:05:28;101853.63;;;11.60;67.17
37832;BME280;23671;38.090;-122.570;2022-12-07T03:10:40;101860.38;;;11.51;66.86
37832;BME280;23671;38.090;-122.570;2022-12-07T03:16:05;101861.50;;;11.47;66.75
37832;BME280;23671;38.090;-122.570;2022-12-07T03:19:06;101857.47;;;11.42;66.96
37832;BME280;23671;38.090;-122.570;2022-12-07T03:21:39;101853.25;;;11.39;67.30
37832;BME280;23671;38.090;-122.570;2022-12-07T03:24:16;101857.78;;;11.37;66.80
37832;BME280;23671;38.090;-122.570;2022-12-07T03:26:48;101862.44;;;11.34;67.05
37832;BME280;23671;38.090;-122.570;2022-12-07T03:29:28;101858.06;;;11.33;67.05
37832;BME280;23671;38.090;-122.570;2022-12-07T03:32:27;101861.09;;;11.27;66.83
37832;BME280;23671;38.090;-122.570;2022-12-07T03:38:35;101878.59;;;11.15;67.06
37832;BME280;23671;38.090;-122.570;2022-12-07T03:41:11;101872.84;;;11.09;67.34
37832;BME280;23671;38.090;-122.570;2022-12-07T03:43:42;101877.47;;;11.05;66.95
37832;BME280;23671;38.090;-122.570;2022-12-07T03:49:45;101885.59;;;11.02;66.72
37832;BME280;23671;38.090;-122.570;2022-12-07T03:54:59;101888.50;;;10.97;66.80
37832;BME280;23671;38.090;-122.570;2022-12-07T03:57:29;101883.53;;;10.93;66.91
37832;BME280;23671;38.090;-122.570;2022-12-07T03:59:58;101889.19;;;10.87;67.01
37832;BME280;23671;38.090;-122.570;2022-12-07T04:02:28;101888.44;;;10.85;67.07
37832;BME280;23671;38.090;-122.570;2022-12-07T04:04:56;101881.63;;;10.81;66.99
37832;BME280;23671;38.090;-122.570;2022-12-07T04:07:23;101878.34;;;10.77;67.17
37832;BME280;23671;38.090;-122.570;2022-12-07T04:09:50;101887.28;;;10.75;67.24
37832;BME280;23671;38.090;-122.570;2022-12-07T04:12:17;101884.00;;;10.71;67.12
37832;BME280;23671;38.090;-122.570;2022-12-07T04:14:44;101888.78;;;10.65;67.40
37832;BME280;23671;38.090;-122.570;2022-12-07T04:17:11;101894.28;;;10.62;67.15
37832;BME280;23671;38.090;-122.570;2022-12-07T04:19:38;101893.41;;;10.61;67.28
37832;BME280;23671;38.090;-122.570;2022-12-07T04:22:06;101901.44;;;10.60;67.63
37832;BME280;23671;38.090;-122.570;2022-12-07T04:24:34;101895.50;;;10.56;67.35
37832;BME280;23671;38.090;-122.570;2022-12-07T04:27:02;101902.16;;;10.48;67.46
37832;BME280;23671;38.090;-122.570;2022-12-07T04:29:29;101901.13;;;10.50;67.29
37832;BME280;23671;38.090;-122.570;2022-12-07T04:31:56;101908.09;;;10.51;67.14
37832;BME280;23671;38.090;-122.570;2022-12-07T04:34:23;101904.81;;;10.48;67.24
37832;BME280;23671;38.090;-122.570;2022-12-07T04:36:50;101912.91;;;10.45;66.96
37832;BME280;23671;38.090;-122.570;2022-12-07T04:39:23;101918.09;;;10.46;67.01
37832;BME280;23671;38.090;-122.570;2022-12-07T04:41:51;101910.34;;;10.43;66.99
37832;BME280;23671;38.090;-122.570;2022-12-07T04:44:20;101914.56;;;10.32;67.42
37832;BME280;23671;38.090;-122.570;2022-12-07T04:46:48;101910.22;;;10.31;67.29
37832;BME280;23671;38.090;-122.570;2022-12-07T04:49:16;101913.06;;;10.28;67.26
37832;BME280;23671;38.090;-122.570;2022-12-07T04:51:44;101914.09;;;10.25;67.35
37832;BME280;23671;38.090;-122.570;2022-12-07T04:54:11;101920.06;;;10.13;67.66
37832;BME280;23671;38.090;-122.570;2022-12-07T04:56:39;101927.31;;;10.10;67.81
37832;BME280;23671;38.090;-122.570;2022-12-07T04:59:07;101925.78;;;10.05;67.92
37832;BME280;23671;38.090;-122.570;2022-12-07T05:01:34;101923.38;;;10.01;67.75
37832;BME280;23671;38.090;-122.570;2022-12-07T05:04:02;101918.38;;;9.96;67.68
37832;BME280;23671;38.090;-122.570;2022-12-07T05:06:29;101913.13;;;9.96;68.10
37832;BME280;23671;38.090;-122.570;2022-12-07T05:08:56;101914.69;;;9.99;67.61
37832;BME280;23671;38.090;-122.570;2022-12-07T05:11:23;101921.78;;;9.98;67.55
37832;BME280;23671;38.090;-122.570;2022-12-07T05:14:17;101923.56;;;9.98;67.41
37832;BME280;23671;38.090;-122.570;2022-12-07T05:16:45;101911.31;;;9.97;67.80
37832;BME280;23671;38.090;-122.570;2022-12-07T05:19:13;101922.03;;;9.94;67.25
37832;BME280;23671;38.090;-122.570;2022-12-07T05:21:40;101922.22;;;9.91;67.46
37832;BME280;23671;38.090;-122.570;2022-12-07T05:24:09;101916.44;;;9.84;67.43
37832;BME280;23671;38.090;-122.570;2022-12-07T05:26:37;101917.38;;;9.83;67.72
37832;BME280;23671;38.090;-122.570;2022-12-07T05:29:04;101919.09;;;9.84;67.53
37832;BME280;23671;38.090;-122.570;2022-12-07T05:31:32;101915.59;;;9.84;67.61
37832;BME280;23671;38.090;-122.570;2022-12-07T05:33:59;101916.69;;;9.80;67.64
37832;BME280;23671;38.090;-122.570;2022-12-07T05:36:27;101914.34;;;9.75;67.70
37832;BME280;23671;38.090;-122.570;2022-12-07T05:38:55;101917.91;;;9.74;67.20
37832;BME280;23671;38.090;-122.570;2022-12-07T05:41:22;101914.59;;;9.71;67.32
37832;BME280;23671;38.090;-122.570;2022-12-07T05:44:04;101924.72;;;9.63;67.55
37832;BME280;23671;38.090;-122.570;2022-12-07T05:46:32;101929.22;;;9.61;67.67
37832;BME280;23671;38.090;-122.570;2022-12-07T05:48:59;101926.84;;;9.56;67.47
37832;BME280;23671;38.090;-122.570;2022-12-07T05:51:26;101933.63;;;9.60;67.83
37832;BME280;23671;38.090;-122.570;2022-12-07T05:53:53;101931.19;;;9.57;67.87
37832;BME280;23671;38.090;-122.570;2022-12-07T05:56:20;101921.59;;;9.56;67.33
37832;BME280;23671;38.090;-122.570;2022-12-07T05:58:48;101927.00;;;9.53;67.67
37832;BME280;23671;38.090;-122.570;2022-12-07T06:01:33;101918.19;;;9.54;67.50
37832;BME280;23671;38.090;-122.570;2022-12-07T06:04:00;101917.47;;;9.51;67.23
37832;BME280;23671;38.090;-122.570;2022-12-07T06:06:27;101924.81;;;9.46;67.72
37832;BME280;23671;38.090;-122.570;2022-12-07T06:08:54;101930.06;;;9.46;67.84
37832;BME280;23671;38.090;-122.570;2022-12-07T06:11:21;101920.03;;;9.37;67.47
37832;BME280;23671;38.090;-122.570;2022-12-07T06:14:07;101927.78;;;9.40;67.43
37832;BME280;23671;38.090;-122.570;2022-12-07T06:16:34;101921.59;;;9.41;67.32
37832;BME280;23671;38.090;-122.570;2022-12-07T06:19:01;101929.50;;;9.41;67.40
37832;BME280;23671;38.090;-122.570;2022-12-07T06:21:28;101929.63;;;9.38;67.74
37832;BME280;23671;38.090;-122.570;2022-12-07T06:23:55;101925.47;;;9.34;67.24
37832;BME280;23671;38.090;-122.570;2022-12-07T06:26:22;101935.41;;;9.29;67.50
37832;BME280;23671;38.090;-122.570;2022-12-07T06:28:49;101933.69;;;9.28;67.27
37832;BME280;23671;38.090;-122.570;2022-12-07T06:31:16;101937.69;;;9.19;67.56
37832;BME280;23671;38.090;-122.570;2022-12-07T06:33:44;101935.31;;;9.14;67.98
37832;BME280;23671;38.090;-122.570;2022-12-07T06:36:11;101937.84;;;9.16;67.45
37832;BME280;23671;38.090;-122.570;2022-12-07T06:38:38;101938.78;;;9.15;67.71
37832;BME280;23671;38.090;-122.570;2022-12-07T06:41:05;101945.16;;;9.11;67.67
37832;BME280;23671;38.090;-122.570;2022-12-07T06:43:33;101945.16;;;9.11;67.74
37832;BME280;23671;38.090;-122.570;2022-12-07T06:46:00;101953.25;;;9.08;67.85
37832;BME280;23671;38.090;-122.570;2022-12-07T06:48:27;101950.66;;;9.06;67.76
37832;BME280;23671;38.090;-122.570;2022-12-07T06:50:54;101948.28;;;9.02;67.43
37832;BME280;23671;38.090;-122.570;2022-12-07T06:53:22;101946.44;;;9.04;67.69
37832;BME280;23671;38.090;-122.570;2022-12-07T06:55:49;101952.88;;;8.98;67.52
37832;BME280;23671;38.090;-122.570;2022-12-07T06:58:16;101955.66;;;8.95;67.51
37832;BME280;23671;38.090;-122.570;2022-12-07T07:00:44;101959.25;;;8.94;67.31
37832;BME280;23671;38.090;-122.570;2022-12-07T07:03:11;101959.28;;;8.93;67.74
37832;BME280;23671;38.090;-122.570;2022-12-07T07:05:38;101963.88;;;8.89;67.49
37832;BME280;23671;38.090;-122.570;2022-12-07T07:08:05;101965.75;;;8.87;67.40
37832;BME280;23671;38.090;-122.570;2022-12-07T07:10:32;101972.81;;;8.87;67.62
37832;BME280;23671;38.090;-122.570;2022-12-07T07:12:59;101969.53;;;8.82;68.05
37832;BME280;23671;38.090;-122.570;2022-12-07T07:15:26;101968.63;;;8.83;68.00
37832;BME280;23671;38.090;-122.570;2022-12-07T07:17:53;101968.00;;;8.78;67.71
37832;BME280;23671;38.090;-122.570;2022-12-07T07:20:20;101973.44;;;8.75;68.08
37832;BME280;23671;38.090;-122.570;2022-12-07T07:22:47;101971.72;;;8.74;67.38
37832;BME280;23671;38.090;-122.570;2022-12-07T07:25:15;101976.22;;;8.72;67.80
37832;BME280;23671;38.090;-122.570;2022-12-07T07:27:42;101971.13;;;8.69;68.18
37832;BME280;23671;38.090;-122.570;2022-12-07T07:30:09;101967.63;;;8.68;68.12
37832;BME280;23671;38.090;-122.570;2022-12-07T07:32:37;101979.88;;;8.69;67.94
37832;BME280;23671;38.090;-122.570;2022-12-07T07:35:04;101981.88;;;8.64;68.13
37832;BME280;23671;38.090;-122.570;2022-12-07T07:37:31;101980.19;;;8.63;68.05
37832;BME280;23671;38.090;-122.570;2022-12-07T07:39:58;101979.41;;;8.61;67.49
37832;BME280;23671;38.090;-122.570;2022-12-07T07:42:25;101984.03;;;8.56;67.71
37832;BME280;23671;38.090;-122.570;2022-12-07T07:44:52;101981.41;;;8.56;67.86
37832;BME280;23671;38.090;-122.570;2022-12-07T07:47:19;101980.78;;;8.51;67.81
37832;BME280;23671;38.090;-122.570;2022-12-07T07:49:46;101986.16;;;8.50;68.30
37832;BME280;23671;38.090;-122.570;2022-12-07T07:52:13;101988.59;;;8.53;68.17
37832;BME280;23671;38.090;-122.570;2022-12-07T07:54:40;101986.22;;;8.48;67.50
37832;BME280;23671;38.090;-122.570;2022-12-07T07:57:07;101987.31;;;8.44;67.80
37832;BME280;23671;38.090;-122.570;2022-12-07T07:59:34;101992.63;;;8.43;67.89
37832;BME280;23671;38.090;-122.570;2022-12-07T08:02:01;101988.22;;;8.43;68.00
37832;BME280;23671;38.090;-122.570;2022-12-07T08:04:28;101994.16;;;8.47;67.54
37832;BME280;23671;38.090;-122.570;2022-12-07T08:06:56;101998.91;;;8.40;67.44
37832;BME280;23671;38.090;-122.570;2022-12-07T08:09:23;101988.50;;;8.37;67.53
37832;BME280;23671;38.090;-122.570;2022-12-07T08:11:50;101994.94;;;8.32;68.27
37832;BME280;23671;38.090;-122.570;2022-12-07T08:14:17;101993.25;;;8.31;67.64
37832;BME280;23671;38.090;-122.570;2022-12-07T08:16:44;101996.00;;;8.27;68.16
37832;BME280;23671;38.090;-122.570;2022-12-07T08:19:11;101999.44;;;8.30;68.01
37832;BME280;23671;38.090;-122.570;2022-12-07T08:21:38;102003.84;;;8.29;67.35
37832;BME280;23671;38.090;-122.570;2022-12-07T08:24:05;101995.38;;;8.22;68.26
37832;BME280;23671;38.090;-122.570;2022-12-07T08:26:32;101988.63;;;8.17;67.98
37832;BME280;23671;38.090;-122.570;2022-12-07T08:29:00;101992.75;;;8.22;67.64
37832;BME280;23671;38.090;-122.570;2022-12-07T08:31:27;101994.50;;;8.22;67.30
37832;BME280;23671;38.090;-122.570;2022-12-07T08:33:55;101995.50;;;8.19;68.12
37832;BME280;23671;38.090;-122.570;2022-12-07T08:36:22;101987.16;;;8.11;67.83
37832;BME280;23671;38.090;-122.570;2022-12-07T08:38:50;101984.38;;;8.14;67.85
37832;BME280;23671;38.090;-122.570;2022-12-07T08:41:17;101989.91;;;8.08;68.37
37832;BME280;23671;38.090;-122.570;2022-12-07T08:43:44;101989.84;;;8.10;68.05
37832;BME280;23671;38.090;-122.570;2022-12-07T08:48:53;101997.97;;;8.05;67.85
37832;BME280;23671;38.090;-122.570;2022-12-07T08:51:23;101983.34;;;8.00;68.05
37832;BME280;23671;38.090;-122.570;2022-12-07T08:53:52;101982.47;;;7.99;68.51
37832;BME280;23671;38.090;-122.570;2022-12-07T08:56:20;101981.91;;;7.93;67.88
37832;BME280;23671;38.090;-122.570;2022-12-07T08:58:48;101980.22;;;7.92;68.45
37832;BME280;23671;38.090;-122.570;2022-12-07T09:01:15;101975.97;;;7.89;68.43
37832;BME280;23671;38.090;-122.570;2022-12-07T09:03:42;101977.81;;;7.87;68.33
37832;BME280;23671;38.090;-122.570;2022-12-07T09:06:09;101969.63;;;7.93;67.95
37832;BME280;23671;38.090;-122.570;2022-12-07T09:08:45;101972.47;;;7.89;67.73
37832;BME280;23671;38.090;-122.570;2022-12-07T09:11:13;101965.59;;;7.86;68.09
37832;BME280;23671;38.090;-122.570;2022-12-07T09:13:40;101970.28;;;7.80;67.75
37832;BME280;23671;38.090;-122.570;2022-12-07T09:16:07;101964.94;;;7.81;68.26
37832;BME280;23671;38.090;-122.570;2022-12-07T09:18:34;101971.94;;;7.82;67.60
37832;BME280;23671;38.090;-122.570;2022-12-07T09:21:01;101977.25;;;7.81;67.94
37832;BME280;23671;38.090;-122.570;2022-12-07T09:23:28;101967.09;;;7.73;68.47
37832;BME280;23671;38.090;-122.570;2022-12-07T09:25:58;101976.91;;;7.70;67.99
37832;BME280;23671;38.090;-122.570;2022-12-07T09:28:25;101969.72;;;7.73;68.14
37832;BME280;23671;38.090;-122.570;2022-12-07T09:30:52;101977.59;;;7.73;67.83
37832;BME280;23671;38.090;-122.570;2022-12-07T09:33:19;101978.53;;;7.72;68.10
37832;BME280;23671;38.090;-122.570;2022-12-07T09:35:48;101980.47;;;7.69;67.87
37832;BME280;23671;38.090;-122.570;2022-12-07T09:38:16;101984.22;;;7.63;68.51
37832;BME280;23671;38.090;-122.570;2022-12-07T09:40:43;101982.88;;;7.55;68.41
37832;BME280;23671;38.090;-122.570;2022-12-07T09:43:22;101986.34;;;7.55;68.68
37832;BME280;23671;38.090;-122.570;2022-12-07T09:45:54;101996.78;;;7.57;67.99
37832;BME280;23671;38.090;-122.570;2022-12-07T09:48:36;101996.00;;;7.55;68.42
37832;BME280;23671;38.090;-122.570;2022-12-07T09:51:17;101994.94;;;7.59;67.93
37832;BME280;23671;38.090;-122.570;2022-12-07T09:53:45;101997.72;;;7.56;68.18
37832;BME280;23671;38.090;-122.570;2022-12-07T09:56:17;102005.47;;;7.59;68.04
37832;BME280;23671;38.090;-122.570;2022-12-07T09:58:45;102001.44;;;7.52;68.02
37832;BME280;23671;38.090;-122.570;2022-12-07T10:01:19;102007.50;;;7.52;67.74
37832;BME280;23671;38.090;-122.570;2022-12-07T10:06:33;102007.03;;;7.44;68.11
37832;BME280;23671;38.090;-122.570;2022-12-07T10:09:00;102000.22;;;7.40;68.44
37832;BME280;23671;38.090;-122.570;2022-12-07T10:11:27;102008.13;;;7.38;68.20
37832;BME280;23671;38.090;-122.570;2022-12-07T10:13:55;102011.63;;;7.39;68.01
37832;BME280;23671;38.090;-122.570;2022-12-07T10:18:55;102010.22;;;7.32;68.29
37832;BME280;23671;38.090;-122.570;2022-12-07T10:21:24;102015.38;;;7.33;68.23
37832;BME280;23671;38.090;-122.570;2022-12-07T10:24:13;102016.44;;;7.29;68.40
37832;BME280;23671;38.090;-122.570;2022-12-07T10:26:59;102024.41;;;7.28;68.27
37832;BME280;23671;38.090;-122.570;2022-12-07T10:29:38;102030.56;;;7.27;68.03
37832;BME280;23671;38.090;-122.570;2022-12-07T10:32:35;102030.84;;;7.21;68.53
37832;BME280;23671;38.090;-122.570;2022-12-07T10:35:28;102025.72;;;7.18;68.30
37832;BME280;23671;38.090;-122.570;2022-12-07T10:37:58;102026.66;;;7.17;68.51
37832;BME280;23671;38.090;-122.570;2022-12-07T10:40:30;102034.56;;;7.15;68.56
37832;BME280;23671;38.090;-122.570;2022-12-07T10:51:46;102052.13;;;7.15;68.14
37832;BME280;23671;38.090;-122.570;2022-12-07T11:00:16;102043.84;;;7.04;68.34
37832;BME280;23671;38.090;-122.570;2022-12-07T11:08:32;102037.16;;;6.97;68.41
37832;BME280;23671;38.090;-122.570;2022-12-07T11:20:29;102047.03;;;6.92;68.06
37832;BME280;23671;38.090;-122.570;2022-12-07T11:26:00;102042.03;;;6.86;68.56
37832;BME280;23671;38.090;-122.570;2022-12-07T11:36:43;102026.53;;;6.80;68.37
37832;BME280;23671;38.090;-122.570;2022-12-07T11:39:35;102031.00;;;6.78;68.38
37832;BME280;23671;38.090;-122.570;2022-12-07T11:42:08;102031.97;;;6.75;68.58
37832;BME280;23671;38.090;-122.570;2022-12-07T11:44:57;102036.25;;;6.78;68.27
37832;BME280;23671;38.090;-122.570;2022-12-07T11:47:54;102040.69;;;6.76;68.58
37832;BME280;23671;38.090;-122.570;2022-12-07T11:50:45;102033.00;;;6.71;68.46
37832;BME280;23671;38.090;-122.570;2022-12-07T11:56:25;102033.28;;;6.65;68.44
37832;BME280;23671;38.090;-122.570;2022-12-07T12:04:06;102036.09;;;6.61;68.55
37832;BME280;23671;38.090;-122.570;2022-12-07T12:06:44;102044.09;;;6.58;68.41
37832;BME280;23671;38.090;-122.570;2022-12-07T12:09:29;102043.28;;;6.56;68.62
37832;BME280;23671;38.090;-122.570;2022-12-07T12:18:05;102037.41;;;6.51;68.56
37832;BME280;23671;38.090;-122.570;2022-12-07T12:26:01;102041.84;;;6.49;68.40
37832;BME280;23671;38.090;-122.570;2022-12-07T12:28:49;102055.09;;;6.46;68.47
37832;BME280;23671;38.090;-122.570;2022-12-07T12:31:32;102044.72;;;6.42;68.51
37832;BME280;23671;38.090;-122.570;2022-12-07T12:34:04;102049.16;;;6.40;68.46
37832;BME280;23671;38.090;-122.570;2022-12-07T12:50:29;102063.53;;;6.32;68.41
37832;BME280;23671;38.090;-122.570;2022-12-07T12:53:12;102054.78;;;6.31;68.40
37832;BME280;23671;38.090;-122.570;2022-12-07T12:58:31;102051.53;;;6.26;68.38
37832;BME280;23671;38.090;-122.570;2022-12-07T13:03:55;102062.00;;;6.26;68.30
37832;BME280;23671;38.090;-122.570;2022-12-07T13:08:56;102068.28;;;6.22;68.32
37832;BME280;23671;38.090;-122.570;2022-12-07T13:11:38;102072.75;;;6.20;68.27
37832;BME280;23671;38.090;-122.570;2022-12-07T13:14:42;102077.25;;;6.17;68.36
37832;BME280;23671;38.090;-122.570;2022-12-07T13:20:06;102082.50;;;6.17;68.29
37832;BME280;23671;38.090;-122.570;2022-12-07T13:22:35;102079.91;;;6.15;68.38
37832;BME280;23671;38.090;-122.570;2022-12-07T13:27:43;102089.66;;;6.12;68.37
37832;BME280;23671;38.090;-122.570;2022-12-07T13:30:19;102094.06;;;6.11;68.35
37832;BME280;23671;38.090;-122.570;2022-12-07T13:32:58;102102.78;;;6.12;68.33
37832;BME280;23671;38.090;-122.570;2022-12-07T13:35:36;102103.63;;;6.12;68.34
37832;BME280;23671;38.090;-122.570;2022-12-07T13:41:21;102103.88;;;6.06;68.59
37832;BME280;23671;38.090;-122.570;2022-12-07T13:44:12;102108.22;;;6.07;68.37
37832;BME280;23671;38.090;-122.570;2022-12-07T13:49:46;102111.59;;;6.09;68.29
37832;BME280;23671;38.090;-122.570;2022-12-07T13:52:23;102107.16;;;6.11;68.21
37832;BME280;23671;38.090;-122.570;2022-12-07T13:57:33;102117.06;;;6.05;68.36
37832;BME280;23671;38.090;-122.570;2022-12-07T14:00:13;102122.34;;;6.03;68.35
37832;BME280;23671;38.090;-122.570;2022-12-07T14:05:28;102128.50;;;6.02;68.17
37832;BME280;23671;38.090;-122.570;2022-12-07T14:08:03;102124.19;;;6.01;68.33
37832;BME280;23671;38.090;-122.570;2022-12-07T14:13:34;102131.25;;;5.99;68.13
37832;BME280;23671;38.090;-122.570;2022-12-07T14:16:04;102128.00;;;5.93;68.35
37832;BME280;23671;38.090;-122.570;2022-12-07T14:18:40;102138.41;;;5.94;68.26
37832;BME280;23671;38.090;-122.570;2022-12-07T14:23:42;102141.97;;;5.93;68.21
37832;BME280;23671;38.090;-122.570;2022-12-07T14:26:14;102149.03;;;5.91;68.38
37832;BME280;23671;38.090;-122.570;2022-12-07T14:28:42;102149.81;;;5.93;68.18
37832;BME280;23671;38.090;-122.570;2022-12-07T14:31:18;102150.84;;;5.89;68.34
37832;BME280;23671;38.090;-122.570;2022-12-07T14:33:47;102153.47;;;5.89;68.31
37832;BME280;23671;38.090;-122.570;2022-12-07T14:36:15;102163.81;;;5.92;68.21
37832;BME280;23671;38.090;-122.570;2022-12-07T14:38:42;102160.31;;;5.93;68.10
37832;BME280;23671;38.090;-122.570;2022-12-07T14:41:27;102152.44;;;5.93;68.15
37832;BME280;23671;38.090;-122.570;2022-12-07T14:44:13;102168.91;;;5.97;67.88
37832;BME280;23671;38.090;-122.570;2022-12-07T14:46:40;102160.19;;;5.96;68.25
37832;BME280;23671;38.090;-122.570;2022-12-07T14:49:07;102163.81;;;5.92;68.10
37832;BME280;23671;38.090;-122.570;2022-12-07T14:51:36;102167.16;;;5.97;68.09
37832;BME280;23671;38.090;-122.570;2022-12-07T14:54:09;102162.00;;;5.94;68.27
37832;BME280;23671;38.090;-122.570;2022-12-07T14:56:40;102163.72;;;5.95;68.10
37832;BME280;23671;38.090;-122.570;2022-12-07T14:59:08;102163.72;;;5.95;68.33
37832;BME280;23671;38.090;-122.570;2022-12-07T15:01:35;102164.53;;;5.97;68.04
37832;BME280;23671;38.090;-122.570;2022-12-07T15:04:02;102163.66;;;5.97;68.15
37832;BME280;23671;38.090;-122.570;2022-12-07T15:06:29;102175.81;;;5.99;67.73
37832;BME280;23671;38.090;-122.570;2022-12-07T15:08:56;102158.41;;;5.97;68.04
37832;BME280;23671;38.090;-122.570;2022-12-07T15:11:23;102164.53;;;5.97;68.01
37832;BME280;23671;38.090;-122.570;2022-12-07T15:13:50;102162.72;;;5.99;67.76